KOQT METAR and TAF weather

Enter ICAO airport designator
Station Type Date Time Source
KOQT METAR 2017/06/25 23:53 UTC NOAA

KOQT 252353Z AUTO VRB03KT 10SM CLR 26/07 A3017 RMK AO2 SLP204 T02610072 10283 20250 53003


Station Type Date Time Source
KOQT Decoded METAR 2017/06/25 23:53 UTC NOAA

OAK RIDGE, TN, United States (KOQT) 36-01N 84-14W
Jun 25, 2017 - 07:53 PM EDT / 2017.06.25 2353 UTC
Wind: Variable at 3 MPH (3 KT):0
Visibility: 10 mile(s):0
Sky conditions: clear
Temperature: 79.0 F (26.1 C)
Dew Point: 45.0 F (7.2 C)
Relative Humidity: 30%
Pressure (altimeter): 30.17 in. Hg (1021 hPa)
Pressure tendency: 0.01 inches (0.3 hPa) higher than three hours ago
ob: KOQT 252353Z AUTO VRB03KT 10SM CLR 26/07 A3017 RMK AO2 SLP204 T02610072 10283 20250 53003
cycle: 0

Station Type Date Time Source
KOQT TAF UTC NOAA

Error!


Example: see airport list